WMSA/SZB METAR and TAF weather

Enter ICAO airport designator
Station Type Date Time Source
WMSA METAR 2019/06/20 07:00 UTC NOAA

WMSA 200700Z 18007KT 140V210 9999 FEW017CB SCT018 BKN270 32/25 Q1007


Station Type Date Time Source
WMSA Decoded METAR 2019/06/20 07:00 UTC NOAA

Subang/Sultan Abdul Aziz Shah Airport, Malaysia (WMSA) 03-07N 101-32E
Jun 20, 2019 - 03:00 AM EDT / 2019.06.20 0700 UTC
Wind: from the S (180 degrees) at 8 MPH (7 KT) (direction variable):0
Visibility: greater than 7 mile(s):0
Sky conditions: mostly cloudy
Weather: Cumulonimbus clouds observed
Temperature: 89 F (32 C)
Heat index: 100.6 F (38.1 C):1
Dew Point: 77 F (25 C)
Relative Humidity: 66%
Pressure (altimeter): 29.74 in. Hg (1007 hPa)
ob: WMSA 200700Z 18007KT 140V210 9999 FEW017CB SCT018 BKN270 32/25 Q1007
cycle: 7

Station Type Date Time Source
WMSA TAF 2019/06/20 06:12 UTC NOAA

TAF WMSA 200500Z 2006/2106 14005KT 9999 FEW017CB
TEMPO 2006/2010 18008KT 3000 TSRA FEW017CB SCT018
BECMG 2011/2013 FEW025

Example: see airport list